Marshfield, WI

7:07 AM CST on February 11, 2016 (GMT -0600)
APRSWXNET | | Change Station
CLOSE
Current Station
Personal Weather Station
Location: Hewitt, WI
Elevation: 1243 ft
Nearby Weather Stations

Elev 1243 ft 44.64 °N, 90.10 °W | Updated 19 minutes ago

Clear
Clear
-4 °F
Feels Like -4 °F
N
1
Wind Variable Wind from NW
Gusts 3.0 mph

Today
High -- | Low -- °F
--% Chance of Precip.
Yesterday
High -- | Low -- °F
Precip. -- in
Pressure 30.34 in
Visibility 10.0 miles
Clouds Clear
Windchill -4 °F
Dew Point -10 °F
Humidity 73%
Rainfall in
Snow Depth Not available.
7:07 AM 5:23 PM
Waxing Crescent, 12% visible
METAR KMFI 111254Z AUTO 31006KT 10SM CLR M23/M27 A3022 RMK AO2 SLP274 I1000 T12331267
Pressure 30.34 in
Visibility 10.0 miles
Clouds Clear
Windchill -4 °F
Dew Point -10 °F
Humidity 73%
Rainfall in
Snow Depth Not available.
7:07 AM 5:23 PM
Waxing Crescent, 12% visible
METAR KMFI 111254Z AUTO 31006KT 10SM CLR M23/M27 A3022 RMK AO2 SLP274 I1000 T12331267

10-Day Weather Forecast

Almanac

Astronomy

Feb. 11, 2016 Rise Set
Actual Time
Civil Twilight
Nautical Twilight
Astronomical Twilight
Moon
Length of Visible Light
Length of Day
Tomorrow will be .
, % of the Moon is Illuminated

Today's Extremes

State Highs State Lows

Community

WunderPhotos

Upload Photos

1,892,038 photos uploaded!

WunderBlog® & News

Nearby

Air Quality

  Air Quality AQ Index Pollutant
Not available.

Snow Depth

Station Depth Elevation

Earthquake Activity

City Distance Mag. Time & Date
Minimum magnitude displayed is 2.5.

Coastal Water Temperatures

Place Temperature

Stations

Nearby Weather Stations

Station Location Temp. Windchill Dew Point Humidity Wind Precip. Elev Updated Type
                   

Watches & Warnings

There are currently no watches in effect.